sensor_id;sensor_type;location;lat;lon;timestamp;P1;durP1;ratioP1;P2;durP2;ratioP2
35506;SDS011;36461;52.018;21.036;2023-10-08T00:01:38;5.40;;;2.50;;
35506;SDS011;36461;52.018;21.036;2023-10-08T00:04:10;5.50;;;3.00;;
35506;SDS011;36461;52.018;21.036;2023-10-08T00:06:38;5.40;;;2.40;;
35506;SDS011;36461;52.018;21.036;2023-10-08T00:09:07;5.30;;;2.60;;
35506;SDS011;36461;52.018;21.036;2023-10-08T00:11:37;8.10;;;3.10;;
35506;SDS011;36461;52.018;21.036;2023-10-08T00:14:08;6.00;;;2.70;;
35506;SDS011;36461;52.018;21.036;2023-10-08T00:16:45;5.70;;;2.50;;
35506;SDS011;36461;52.018;21.036;2023-10-08T00:19:18;5.50;;;2.90;;
35506;SDS011;36461;52.018;21.036;2023-10-08T00:21:47;6.50;;;2.90;;
35506;SDS011;36461;52.018;21.036;2023-10-08T00:24:16;6.10;;;3.20;;
35506;SDS011;36461;52.018;21.036;2023-10-08T00:26:44;5.70;;;2.70;;
35506;SDS011;36461;52.018;21.036;2023-10-08T00:29:13;6.40;;;2.90;;
35506;SDS011;36461;52.018;21.036;2023-10-08T00:31:44;5.80;;;3.30;;
35506;SDS011;36461;52.018;21.036;2023-10-08T00:34:13;6.50;;;2.80;;
35506;SDS011;36461;52.018;21.036;2023-10-08T00:36:43;6.30;;;3.30;;
35506;SDS011;36461;52.018;21.036;2023-10-08T00:39:13;5.80;;;3.10;;
35506;SDS011;36461;52.018;21.036;2023-10-08T00:41:44;6.00;;;3.50;;
35506;SDS011;36461;52.018;21.036;2023-10-08T00:44:13;4.80;;;3.10;;
35506;SDS011;36461;52.018;21.036;2023-10-08T00:46:51;8.80;;;3.10;;
35506;SDS011;36461;52.018;21.036;2023-10-08T00:49:23;5.70;;;3.10;;
35506;SDS011;36461;52.018;21.036;2023-10-08T00:51:55;5.80;;;2.70;;
35506;SDS011;36461;52.018;21.036;2023-10-08T00:54:28;6.70;;;2.80;;
35506;SDS011;36461;52.018;21.036;2023-10-08T00:57:00;6.60;;;2.90;;
35506;SDS011;36461;52.018;21.036;2023-10-08T00:59:32;7.00;;;2.60;;
35506;SDS011;36461;52.018;21.036;2023-10-08T01:02:12;6.10;;;2.30;;
35506;SDS011;36461;52.018;21.036;2023-10-08T01:04:47;6.10;;;2.30;;
35506;SDS011;36461;52.018;21.036;2023-10-08T01:07:18;4.80;;;2.30;;
35506;SDS011;36461;52.018;21.036;2023-10-08T01:09:46;7.20;;;2.50;;
35506;SDS011;36461;52.018;21.036;2023-10-08T01:12:27;5.70;;;2.60;;
35506;SDS011;36461;52.018;21.036;2023-10-08T01:14:57;6.30;;;2.40;;
35506;SDS011;36461;52.018;21.036;2023-10-08T01:17:32;7.20;;;2.10;;
35506;SDS011;36461;52.018;21.036;2023-10-08T01:20:10;7.70;;;2.40;;
35506;SDS011;36461;52.018;21.036;2023-10-08T01:23:08;5.90;;;2.00;;
35506;SDS011;36461;52.018;21.036;2023-10-08T01:25:39;3.90;;;1.90;;
35506;SDS011;36461;52.018;21.036;2023-10-08T01:28:09;6.60;;;1.80;;
35506;SDS011;36461;52.018;21.036;2023-10-08T01:31:04;3.70;;;1.90;;
35506;SDS011;36461;52.018;21.036;2023-10-08T01:33:32;4.10;;;1.60;;
35506;SDS011;36461;52.018;21.036;2023-10-08T01:36:06;3.90;;;1.50;;
35506;SDS011;36461;52.018;21.036;2023-10-08T01:38:40;3.10;;;1.70;;
35506;SDS011;36461;52.018;21.036;2023-10-08T01:41:09;4.50;;;2.00;;
35506;SDS011;36461;52.018;21.036;2023-10-08T01:43:48;5.50;;;1.90;;
35506;SDS011;36461;52.018;21.036;2023-10-08T01:46:20;4.60;;;1.90;;
35506;SDS011;36461;52.018;21.036;2023-10-08T01:48:50;3.90;;;2.10;;
35506;SDS011;36461;52.018;21.036;2023-10-08T01:51:24;5.40;;;1.90;;
35506;SDS011;36461;52.018;21.036;2023-10-08T01:54:05;4.20;;;2.10;;
35506;SDS011;36461;52.018;21.036;2023-10-08T01:56:40;5.60;;;2.00;;
35506;SDS011;36461;52.018;21.036;2023-10-08T01:59:11;4.80;;;2.00;;
35506;SDS011;36461;52.018;21.036;2023-10-08T02:01:43;4.70;;;1.60;;
35506;SDS011;36461;52.018;21.036;2023-10-08T02:04:13;4.80;;;2.10;;
35506;SDS011;36461;52.018;21.036;2023-10-08T02:06:45;4.90;;;1.90;;
35506;SDS011;36461;52.018;21.036;2023-10-08T02:09:14;4.90;;;1.80;;
35506;SDS011;36461;52.018;21.036;2023-10-08T02:11:47;5.40;;;2.20;;
35506;SDS011;36461;52.018;21.036;2023-10-08T02:14:21;5.50;;;2.40;;
35506;SDS011;36461;52.018;21.036;2023-10-08T02:16:50;5.60;;;2.00;;
35506;SDS011;36461;52.018;21.036;2023-10-08T02:19:24;6.20;;;2.50;;
35506;SDS011;36461;52.018;21.036;2023-10-08T02:21:56;5.70;;;2.20;;
35506;SDS011;36461;52.018;21.036;2023-10-08T02:24:26;4.70;;;2.00;;
35506;SDS011;36461;52.018;21.036;2023-10-08T02:26:54;6.10;;;2.60;;
35506;SDS011;36461;52.018;21.036;2023-10-08T02:29:25;5.90;;;2.60;;
35506;SDS011;36461;52.018;21.036;2023-10-08T02:31:58;6.10;;;2.20;;
35506;SDS011;36461;52.018;21.036;2023-10-08T02:34:27;5.40;;;2.50;;
35506;SDS011;36461;52.018;21.036;2023-10-08T02:36:55;8.30;;;2.40;;
35506;SDS011;36461;52.018;21.036;2023-10-08T02:39:24;6.30;;;3.00;;
35506;SDS011;36461;52.018;21.036;2023-10-08T02:41:54;7.50;;;3.30;;
35506;SDS011;36461;52.018;21.036;2023-10-08T02:44:25;8.10;;;2.90;;
35506;SDS011;36461;52.018;21.036;2023-10-08T02:46:53;5.20;;;2.80;;
35506;SDS011;36461;52.018;21.036;2023-10-08T02:49:22;7.10;;;2.70;;
35506;SDS011;36461;52.018;21.036;2023-10-08T02:51:51;7.90;;;2.90;;
35506;SDS011;36461;52.018;21.036;2023-10-08T02:54:23;9.90;;;3.10;;
35506;SDS011;36461;52.018;21.036;2023-10-08T02:57:00;8.00;;;3.50;;
35506;SDS011;36461;52.018;21.036;2023-10-08T02:59:32;7.00;;;3.30;;
35506;SDS011;36461;52.018;21.036;2023-10-08T03:02:12;8.10;;;3.40;;
35506;SDS011;36461;52.018;21.036;2023-10-08T03:04:51;6.60;;;3.20;;
35506;SDS011;36461;52.018;21.036;2023-10-08T03:07:21;8.70;;;3.80;;
35506;SDS011;36461;52.018;21.036;2023-10-08T03:09:51;8.40;;;2.70;;
35506;SDS011;36461;52.018;21.036;2023-10-08T03:12:32;7.60;;;3.20;;
35506;SDS011;36461;52.018;21.036;2023-10-08T03:15:02;7.00;;;3.30;;
35506;SDS011;36461;52.018;21.036;2023-10-08T03:17:49;9.20;;;3.30;;
35506;SDS011;36461;52.018;21.036;2023-10-08T03:20:19;10.00;;;3.10;;
35506;SDS011;36461;52.018;21.036;2023-10-08T03:23:08;8.50;;;3.30;;
35506;SDS011;36461;52.018;21.036;2023-10-08T03:25:41;7.60;;;3.20;;
35506;SDS011;36461;52.018;21.036;2023-10-08T03:28:09;7.30;;;3.70;;
35506;SDS011;36461;52.018;21.036;2023-10-08T03:30:41;10.60;;;4.00;;
35506;SDS011;36461;52.018;21.036;2023-10-08T03:33:19;10.40;;;4.10;;
35506;SDS011;36461;52.018;21.036;2023-10-08T03:35:52;9.10;;;3.60;;
35506;SDS011;36461;52.018;21.036;2023-10-08T03:38:23;10.60;;;4.20;;
35506;SDS011;36461;52.018;21.036;2023-10-08T03:41:12;13.30;;;4.70;;
35506;SDS011;36461;52.018;21.036;2023-10-08T03:43:48;11.00;;;4.50;;
35506;SDS011;36461;52.018;21.036;2023-10-08T03:46:40;10.80;;;4.20;;
35506;SDS011;36461;52.018;21.036;2023-10-08T03:49:14;9.90;;;4.30;;
35506;SDS011;36461;52.018;21.036;2023-10-08T03:51:53;10.90;;;4.80;;
35506;SDS011;36461;52.018;21.036;2023-10-08T03:54:21;11.90;;;4.80;;
35506;SDS011;36461;52.018;21.036;2023-10-08T03:56:58;13.50;;;4.60;;
35506;SDS011;36461;52.018;21.036;2023-10-08T03:59:26;12.30;;;5.40;;
35506;SDS011;36461;52.018;21.036;2023-10-08T04:01:58;10.20;;;4.30;;
35506;SDS011;36461;52.018;21.036;2023-10-08T04:04:43;9.70;;;5.10;;
35506;SDS011;36461;52.018;21.036;2023-10-08T04:07:27;10.00;;;4.50;;
35506;SDS011;36461;52.018;21.036;2023-10-08T04:10:01;8.60;;;4.50;;
35506;SDS011;36461;52.018;21.036;2023-10-08T04:12:39;8.40;;;4.20;;
35506;SDS011;36461;52.018;21.036;2023-10-08T04:15:18;14.50;;;4.60;;
35506;SDS011;36461;52.018;21.036;2023-10-08T04:17:47;11.40;;;4.40;;
35506;SDS011;36461;52.018;21.036;2023-10-08T04:20:19;6.40;;;3.90;;
35506;SDS011;36461;52.018;21.036;2023-10-08T04:23:06;10.30;;;4.00;;
35506;SDS011;36461;52.018;21.036;2023-10-08T04:25:46;9.90;;;3.80;;
35506;SDS011;36461;52.018;21.036;2023-10-08T04:28:22;9.40;;;4.20;;
35506;SDS011;36461;52.018;21.036;2023-10-08T04:30:56;9.50;;;3.80;;
35506;SDS011;36461;52.018;21.036;2023-10-08T04:33:43;7.90;;;3.60;;
35506;SDS011;36461;52.018;21.036;2023-10-08T04:36:12;7.30;;;3.40;;
35506;SDS011;36461;52.018;21.036;2023-10-08T04:38:46;8.40;;;3.70;;
35506;SDS011;36461;52.018;21.036;2023-10-08T04:41:22;8.10;;;3.30;;
35506;SDS011;36461;52.018;21.036;2023-10-08T04:43:56;9.20;;;3.40;;
35506;SDS011;36461;52.018;21.036;2023-10-08T04:46:24;7.60;;;3.40;;
35506;SDS011;36461;52.018;21.036;2023-10-08T04:49:07;7.30;;;3.10;;
35506;SDS011;36461;52.018;21.036;2023-10-08T04:51:45;7.10;;;2.80;;
35506;SDS011;36461;52.018;21.036;2023-10-08T04:54:16;7.60;;;3.40;;
35506;SDS011;36461;52.018;21.036;2023-10-08T04:56:45;4.80;;;2.40;;
35506;SDS011;36461;52.018;21.036;2023-10-08T04:59:17;6.10;;;2.60;;
35506;SDS011;36461;52.018;21.036;2023-10-08T05:01:50;10.50;;;2.70;;
35506;SDS011;36461;52.018;21.036;2023-10-08T05:04:36;7.90;;;2.50;;
35506;SDS011;36461;52.018;21.036;2023-10-08T05:07:19;5.60;;;2.10;;
35506;SDS011;36461;52.018;21.036;2023-10-08T05:10:06;4.80;;;1.90;;
35506;SDS011;36461;52.018;21.036;2023-10-08T05:12:35;4.00;;;1.90;;
35506;SDS011;36461;52.018;21.036;2023-10-08T05:15:18;3.90;;;1.60;;
35506;SDS011;36461;52.018;21.036;2023-10-08T05:18:01;3.50;;;1.90;;
35506;SDS011;36461;52.018;21.036;2023-10-08T05:20:51;3.40;;;1.60;;
35506;SDS011;36461;52.018;21.036;2023-10-08T05:23:20;2.70;;;1.30;;
35506;SDS011;36461;52.018;21.036;2023-10-08T05:25:48;2.80;;;1.50;;
35506;SDS011;36461;52.018;21.036;2023-10-08T05:28:39;5.70;;;1.60;;
35506;SDS011;36461;52.018;21.036;2023-10-08T05:31:28;2.20;;;1.20;;
35506;SDS011;36461;52.018;21.036;2023-10-08T05:34:21;3.70;;;1.50;;
35506;SDS011;36461;52.018;21.036;2023-10-08T05:37:00;3.30;;;1.30;;
35506;SDS011;36461;52.018;21.036;2023-10-08T05:39:48;3.50;;;1.20;;
35506;SDS011;36461;52.018;21.036;2023-10-08T05:42:23;2.40;;;1.20;;
35506;SDS011;36461;52.018;21.036;2023-10-08T05:44:57;2.60;;;1.20;;
35506;SDS011;36461;52.018;21.036;2023-10-08T05:47:38;2.40;;;1.30;;
35506;SDS011;36461;52.018;21.036;2023-10-08T05:50:06;2.00;;;1.10;;
35506;SDS011;36461;52.018;21.036;2023-10-08T05:52:45;2.20;;;1.10;;
35506;SDS011;36461;52.018;21.036;2023-10-08T05:55:30;3.40;;;1.10;;
35506;SDS011;36461;52.018;21.036;2023-10-08T05:58:05;2.30;;;1.20;;
35506;SDS011;36461;52.018;21.036;2023-10-08T06:00:47;2.40;;;1.20;;
35506;SDS011;36461;52.018;21.036;2023-10-08T06:03:19;3.80;;;1.20;;
35506;SDS011;36461;52.018;21.036;2023-10-08T06:06:01;2.70;;;1.20;;
35506;SDS011;36461;52.018;21.036;2023-10-08T06:08:40;1.80;;;0.90;;
35506;SDS011;36461;52.018;21.036;2023-10-08T06:11:28;3.60;;;1.00;;
35506;SDS011;36461;52.018;21.036;2023-10-08T06:14:14;3.30;;;1.10;;
35506;SDS011;36461;52.018;21.036;2023-10-08T06:17:05;2.10;;;1.20;;
35506;SDS011;36461;52.018;21.036;2023-10-08T06:19:56;4.00;;;1.10;;
35506;SDS011;36461;52.018;21.036;2023-10-08T06:22:25;1.80;;;1.10;;
35506;SDS011;36461;52.018;21.036;2023-10-08T06:24:54;4.20;;;1.50;;
35506;SDS011;36461;52.018;21.036;2023-10-08T06:27:42;2.60;;;1.30;;
35506;SDS011;36461;52.018;21.036;2023-10-08T06:30:12;2.10;;;1.10;;
35506;SDS011;36461;52.018;21.036;2023-10-08T06:32:45;1.50;;;1.00;;
35506;SDS011;36461;52.018;21.036;2023-10-08T06:35:13;2.70;;;1.10;;
35506;SDS011;36461;52.018;21.036;2023-10-08T06:37:46;1.00;;;0.80;;
35506;SDS011;36461;52.018;21.036;2023-10-08T06:40:17;1.50;;;0.90;;
35506;SDS011;36461;52.018;21.036;2023-10-08T06:43:08;2.10;;;1.00;;
35506;SDS011;36461;52.018;21.036;2023-10-08T06:45:43;3.50;;;1.30;;
35506;SDS011;36461;52.018;21.036;2023-10-08T06:48:13;1.90;;;1.10;;
35506;SDS011;36461;52.018;21.036;2023-10-08T06:50:50;1.80;;;0.80;;
35506;SDS011;36461;52.018;21.036;2023-10-08T06:53:25;1.10;;;0.80;;
35506;SDS011;36461;52.018;21.036;2023-10-08T06:55:55;2.30;;;1.00;;
35506;SDS011;36461;52.018;21.036;2023-10-08T06:58:32;2.30;;;1.10;;
35506;SDS011;36461;52.018;21.036;2023-10-08T07:01:00;2.20;;;1.00;;
35506;SDS011;36461;52.018;21.036;2023-10-08T07:03:41;2.00;;;1.10;;
35506;SDS011;36461;52.018;21.036;2023-10-08T07:06:09;3.20;;;1.00;;
35506;SDS011;36461;52.018;21.036;2023-10-08T07:09:04;1.40;;;0.80;;
35506;SDS011;36461;52.018;21.036;2023-10-08T07:11:33;1.10;;;0.70;;
35506;SDS011;36461;52.018;21.036;2023-10-08T07:14:07;1.90;;;0.80;;
35506;SDS011;36461;52.018;21.036;2023-10-08T07:16:39;1.80;;;1.10;;
35506;SDS011;36461;52.018;21.036;2023-10-08T07:19:09;2.00;;;1.00;;
35506;SDS011;36461;52.018;21.036;2023-10-08T07:21:46;1.50;;;0.80;;
35506;SDS011;36461;52.018;21.036;2023-10-08T07:24:15;1.90;;;0.90;;
35506;SDS011;36461;52.018;21.036;2023-10-08T07:26:44;2.30;;;1.10;;
35506;SDS011;36461;52.018;21.036;2023-10-08T07:29:17;1.90;;;0.90;;
35506;SDS011;36461;52.018;21.036;2023-10-08T07:31:46;1.90;;;1.20;;
35506;SDS011;36461;52.018;21.036;2023-10-08T07:34:17;3.90;;;1.00;;
35506;SDS011;36461;52.018;21.036;2023-10-08T07:36:48;3.40;;;0.80;;
35506;SDS011;36461;52.018;21.036;2023-10-08T07:39:19;1.50;;;0.70;;
35506;SDS011;36461;52.018;21.036;2023-10-08T07:42:03;1.70;;;1.00;;
35506;SDS011;36461;52.018;21.036;2023-10-08T07:44:36;3.80;;;1.00;;
35506;SDS011;36461;52.018;21.036;2023-10-08T07:47:04;2.40;;;1.00;;
35506;SDS011;36461;52.018;21.036;2023-10-08T07:49:39;2.10;;;0.70;;
35506;SDS011;36461;52.018;21.036;2023-10-08T07:52:07;0.80;;;0.60;;
35506;SDS011;36461;52.018;21.036;2023-10-08T07:54:35;1.40;;;0.70;;
35506;SDS011;36461;52.018;21.036;2023-10-08T07:57:03;1.10;;;0.70;;
35506;SDS011;36461;52.018;21.036;2023-10-08T07:59:39;2.50;;;0.70;;
35506;SDS011;36461;52.018;21.036;2023-10-08T08:04:49;1.70;;;0.80;;
35506;SDS011;36461;52.018;21.036;2023-10-08T08:07:20;2.50;;;0.80;;
35506;SDS011;36461;52.018;21.036;2023-10-08T08:09:50;2.30;;;0.80;;
35506;SDS011;36461;52.018;21.036;2023-10-08T08:12:27;1.90;;;0.70;;
35506;SDS011;36461;52.018;21.036;2023-10-08T08:14:56;3.20;;;1.10;;
35506;SDS011;36461;52.018;21.036;2023-10-08T08:17:24;4.70;;;1.00;;
35506;SDS011;36461;52.018;21.036;2023-10-08T08:19:53;1.00;;;0.60;;
35506;SDS011;36461;52.018;21.036;2023-10-08T08:22:21;1.90;;;0.90;;
35506;SDS011;36461;52.018;21.036;2023-10-08T08:24:51;2.90;;;0.90;;
35506;SDS011;36461;52.018;21.036;2023-10-08T08:27:25;3.20;;;0.80;;
35506;SDS011;36461;52.018;21.036;2023-10-08T08:30:00;3.30;;;1.00;;
35506;SDS011;36461;52.018;21.036;2023-10-08T08:32:38;1.40;;;0.80;;
35506;SDS011;36461;52.018;21.036;2023-10-08T08:35:08;2.10;;;1.00;;
35506;SDS011;36461;52.018;21.036;2023-10-08T08:37:38;2.70;;;0.80;;
35506;SDS011;36461;52.018;21.036;2023-10-08T08:40:08;2.30;;;0.90;;
35506;SDS011;36461;52.018;21.036;2023-10-08T08:42:37;2.40;;;0.80;;
35506;SDS011;36461;52.018;21.036;2023-10-08T08:45:08;1.70;;;0.80;;
35506;SDS011;36461;52.018;21.036;2023-10-08T08:47:40;2.10;;;0.80;;
35506;SDS011;36461;52.018;21.036;2023-10-08T08:50:09;2.40;;;0.60;;
35506;SDS011;36461;52.018;21.036;2023-10-08T08:52:38;1.60;;;0.70;;
35506;SDS011;36461;52.018;21.036;2023-10-08T08:55:07;1.50;;;0.60;;
35506;SDS011;36461;52.018;21.036;2023-10-08T08:57:43;2.90;;;1.00;;
35506;SDS011;36461;52.018;21.036;2023-10-08T09:00:13;2.80;;;0.70;;
35506;SDS011;36461;52.018;21.036;2023-10-08T09:02:44;0.80;;;0.60;;
35506;SDS011;36461;52.018;21.036;2023-10-08T09:05:16;0.80;;;0.60;;
35506;SDS011;36461;52.018;21.036;2023-10-08T09:08:01;3.50;;;0.90;;
35506;SDS011;36461;52.018;21.036;2023-10-08T09:10:36;2.40;;;0.70;;
35506;SDS011;36461;52.018;21.036;2023-10-08T09:13:06;2.40;;;0.80;;
35506;SDS011;36461;52.018;21.036;2023-10-08T09:15:37;2.60;;;0.80;;
35506;SDS011;36461;52.018;21.036;2023-10-08T09:18:06;1.00;;;0.60;;
35506;SDS011;36461;52.018;21.036;2023-10-08T09:20:37;2.40;;;0.80;;
35506;SDS011;36461;52.018;21.036;2023-10-08T09:23:16;2.40;;;0.90;;
35506;SDS011;36461;52.018;21.036;2023-10-08T09:25:50;3.30;;;0.70;;
35506;SDS011;36461;52.018;21.036;2023-10-08T09:28:19;2.40;;;1.10;;
35506;SDS011;36461;52.018;21.036;2023-10-08T09:30:53;2.10;;;0.90;;
35506;SDS011;36461;52.018;21.036;2023-10-08T09:33:23;1.60;;;0.60;;
35506;SDS011;36461;52.018;21.036;2023-10-08T09:35:51;2.40;;;0.80;;
35506;SDS011;36461;52.018;21.036;2023-10-08T09:38:25;1.60;;;0.80;;
35506;SDS011;36461;52.018;21.036;2023-10-08T09:40:58;1.60;;;0.60;;
35506;SDS011;36461;52.018;21.036;2023-10-08T09:43:30;1.50;;;0.70;;
35506;SDS011;36461;52.018;21.036;2023-10-08T09:46:06;1.50;;;0.70;;
35506;SDS011;36461;52.018;21.036;2023-10-08T09:48:37;0.80;;;0.60;;
35506;SDS011;36461;52.018;21.036;2023-10-08T09:51:09;2.10;;;1.10;;
35506;SDS011;36461;52.018;21.036;2023-10-08T09:53:51;1.20;;;0.70;;
35506;SDS011;36461;52.018;21.036;2023-10-08T09:56:21;1.50;;;0.80;;
35506;SDS011;36461;52.018;21.036;2023-10-08T09:58:52;3.70;;;0.70;;
35506;SDS011;36461;52.018;21.036;2023-10-08T10:01:21;2.70;;;0.70;;
35506;SDS011;36461;52.018;21.036;2023-10-08T10:03:54;2.50;;;0.70;;
35506;SDS011;36461;52.018;21.036;2023-10-08T10:06:23;1.00;;;0.60;;
35506;SDS011;36461;52.018;21.036;2023-10-08T10:08:52;1.20;;;0.80;;
35506;SDS011;36461;52.018;21.036;2023-10-08T10:11:25;1.10;;;0.70;;
35506;SDS011;36461;52.018;21.036;2023-10-08T10:13:57;3.00;;;1.00;;
35506;SDS011;36461;52.018;21.036;2023-10-08T10:16:29;0.70;;;0.50;;
35506;SDS011;36461;52.018;21.036;2023-10-08T10:18:59;6.30;;;1.10;;
35506;SDS011;36461;52.018;21.036;2023-10-08T10:21:32;2.00;;;0.70;;
35506;SDS011;36461;52.018;21.036;2023-10-08T10:24:01;1.40;;;0.70;;
35506;SDS011;36461;52.018;21.036;2023-10-08T10:26:34;2.10;;;0.80;;
35506;SDS011;36461;52.018;21.036;2023-10-08T10:31:44;1.20;;;0.70;;
35506;SDS011;36461;52.018;21.036;2023-10-08T10:34:18;1.00;;;0.60;;
35506;SDS011;36461;52.018;21.036;2023-10-08T10:36:55;1.20;;;0.60;;
35506;SDS011;36461;52.018;21.036;2023-10-08T10:39:27;2.20;;;0.80;;
35506;SDS011;36461;52.018;21.036;2023-10-08T10:41:57;1.50;;;0.60;;
35506;SDS011;36461;52.018;21.036;2023-10-08T10:44:30;2.20;;;0.70;;
35506;SDS011;36461;52.018;21.036;2023-10-08T10:47:01;1.10;;;0.60;;
35506;SDS011;36461;52.018;21.036;2023-10-08T10:49:45;1.10;;;0.70;;
35506;SDS011;36461;52.018;21.036;2023-10-08T10:52:23;1.20;;;0.70;;
35506;SDS011;36461;52.018;21.036;2023-10-08T10:55:11;2.10;;;1.10;;
35506;SDS011;36461;52.018;21.036;2023-10-08T10:57:48;1.10;;;0.60;;
35506;SDS011;36461;52.018;21.036;2023-10-08T11:00:43;3.30;;;0.60;;
35506;SDS011;36461;52.018;21.036;2023-10-08T11:03:12;1.20;;;0.50;;
35506;SDS011;36461;52.018;21.036;2023-10-08T11:05:46;1.10;;;0.80;;
35506;SDS011;36461;52.018;21.036;2023-10-08T11:08:19;1.10;;;0.50;;
35506;SDS011;36461;52.018;21.036;2023-10-08T11:10:51;1.60;;;0.60;;
35506;SDS011;36461;52.018;21.036;2023-10-08T11:13:26;1.50;;;0.60;;
35506;SDS011;36461;52.018;21.036;2023-10-08T11:15:56;1.30;;;0.60;;
35506;SDS011;36461;52.018;21.036;2023-10-08T11:18:27;0.40;;;0.40;;
35506;SDS011;36461;52.018;21.036;2023-10-08T11:21:06;4.50;;;0.80;;
35506;SDS011;36461;52.018;21.036;2023-10-08T11:23:47;3.20;;;0.70;;
35506;SDS011;36461;52.018;21.036;2023-10-08T11:26:29;1.80;;;0.60;;
35506;SDS011;36461;52.018;21.036;2023-10-08T11:29:07;1.40;;;0.90;;
35506;SDS011;36461;52.018;21.036;2023-10-08T11:31:42;1.10;;;0.70;;
35506;SDS011;36461;52.018;21.036;2023-10-08T11:34:11;2.50;;;0.90;;
35506;SDS011;36461;52.018;21.036;2023-10-08T11:36:41;1.50;;;0.70;;
35506;SDS011;36461;52.018;21.036;2023-10-08T11:39:21;1.10;;;0.50;;
35506;SDS011;36461;52.018;21.036;2023-10-08T11:42:01;1.50;;;0.80;;
35506;SDS011;36461;52.018;21.036;2023-10-08T11:44:53;1.00;;;0.70;;
35506;SDS011;36461;52.018;21.036;2023-10-08T11:47:22;1.80;;;1.10;;
35506;SDS011;36461;52.018;21.036;2023-10-08T11:49:51;3.00;;;2.20;;
35506;SDS011;36461;52.018;21.036;2023-10-08T11:52:39;1.70;;;0.90;;
35506;SDS011;36461;52.018;21.036;2023-10-08T11:55:09;1.40;;;0.90;;
35506;SDS011;36461;52.018;21.036;2023-10-08T11:57:50;1.60;;;1.00;;
35506;SDS011;36461;52.018;21.036;2023-10-08T12:00:19;4.00;;;1.50;;
35506;SDS011;36461;52.018;21.036;2023-10-08T12:02:51;1.60;;;0.70;;
35506;SDS011;36461;52.018;21.036;2023-10-08T12:05:22;1.20;;;0.80;;
35506;SDS011;36461;52.018;21.036;2023-10-08T12:07:52;1.30;;;0.90;;
35506;SDS011;36461;52.018;21.036;2023-10-08T12:10:23;1.10;;;0.70;;
35506;SDS011;36461;52.018;21.036;2023-10-08T12:12:53;0.90;;;0.80;;
35506;SDS011;36461;52.018;21.036;2023-10-08T12:15:28;2.30;;;0.90;;
35506;SDS011;36461;52.018;21.036;2023-10-08T12:18:06;2.80;;;0.80;;
35506;SDS011;36461;52.018;21.036;2023-10-08T12:20:59;2.30;;;0.70;;
35506;SDS011;36461;52.018;21.036;2023-10-08T12:23:28;1.90;;;0.80;;
35506;SDS011;36461;52.018;21.036;2023-10-08T12:26:03;2.00;;;0.70;;
35506;SDS011;36461;52.018;21.036;2023-10-08T12:28:36;1.50;;;1.00;;
35506;SDS011;36461;52.018;21.036;2023-10-08T12:31:05;1.70;;;1.00;;
35506;SDS011;36461;52.018;21.036;2023-10-08T12:33:33;2.10;;;1.10;;
35506;SDS011;36461;52.018;21.036;2023-10-08T12:36:02;1.70;;;0.60;;
35506;SDS011;36461;52.018;21.036;2023-10-08T12:38:40;1.60;;;0.70;;
35506;SDS011;36461;52.018;21.036;2023-10-08T12:41:10;1.40;;;0.60;;
35506;SDS011;36461;52.018;21.036;2023-10-08T12:43:42;1.50;;;0.60;;
35506;SDS011;36461;52.018;21.036;2023-10-08T12:46:14;1.50;;;0.90;;
35506;SDS011;36461;52.018;21.036;2023-10-08T12:48:52;1.60;;;1.10;;
35506;SDS011;36461;52.018;21.036;2023-10-08T12:51:24;0.90;;;0.80;;
35506;SDS011;36461;52.018;21.036;2023-10-08T12:53:53;1.50;;;0.90;;
35506;SDS011;36461;52.018;21.036;2023-10-08T12:56:35;3.90;;;0.90;;
35506;SDS011;36461;52.018;21.036;2023-10-08T12:59:06;1.60;;;0.90;;
35506;SDS011;36461;52.018;21.036;2023-10-08T13:01:35;1.60;;;1.00;;
35506;SDS011;36461;52.018;21.036;2023-10-08T13:04:09;1.80;;;0.70;;
35506;SDS011;36461;52.018;21.036;2023-10-08T13:06:44;2.20;;;0.90;;
35506;SDS011;36461;52.018;21.036;2023-10-08T13:09:13;2.00;;;0.60;;
35506;SDS011;36461;52.018;21.036;2023-10-08T13:11:41;2.70;;;0.80;;
35506;SDS011;36461;52.018;21.036;2023-10-08T13:14:11;5.00;;;0.90;;
35506;SDS011;36461;52.018;21.036;2023-10-08T13:16:40;1.40;;;0.80;;
35506;SDS011;36461;52.018;21.036;2023-10-08T13:19:08;1.40;;;0.90;;
35506;SDS011;36461;52.018;21.036;2023-10-08T13:21:37;1.10;;;0.60;;
35506;SDS011;36461;52.018;21.036;2023-10-08T13:24:06;1.30;;;0.70;;
35506;SDS011;36461;52.018;21.036;2023-10-08T13:26:37;1.30;;;0.60;;
35506;SDS011;36461;52.018;21.036;2023-10-08T13:29:07;3.10;;;0.80;;
35506;SDS011;36461;52.018;21.036;2023-10-08T13:31:37;2.30;;;0.70;;
35506;SDS011;36461;52.018;21.036;2023-10-08T13:34:06;1.00;;;0.60;;
35506;SDS011;36461;52.018;21.036;2023-10-08T13:36:37;1.50;;;0.60;;
35506;SDS011;36461;52.018;21.036;2023-10-08T13:39:08;4.20;;;1.10;;
35506;SDS011;36461;52.018;21.036;2023-10-08T13:41:38;1.60;;;0.90;;
35506;SDS011;36461;52.018;21.036;2023-10-08T13:44:06;1.80;;;1.00;;
35506;SDS011;36461;52.018;21.036;2023-10-08T13:46:35;1.30;;;0.70;;
35506;SDS011;36461;52.018;21.036;2023-10-08T13:49:04;2.30;;;0.80;;
35506;SDS011;36461;52.018;21.036;2023-10-08T13:51:34;2.70;;;0.90;;
35506;SDS011;36461;52.018;21.036;2023-10-08T13:54:04;2.50;;;1.00;;
35506;SDS011;36461;52.018;21.036;2023-10-08T13:56:37;1.10;;;0.70;;
35506;SDS011;36461;52.018;21.036;2023-10-08T13:59:11;0.90;;;0.70;;
35506;SDS011;36461;52.018;21.036;2023-10-08T14:01:41;4.10;;;0.90;;
35506;SDS011;36461;52.018;21.036;2023-10-08T14:04:20;1.10;;;0.70;;
35506;SDS011;36461;52.018;21.036;2023-10-08T14:06:54;2.40;;;0.90;;
35506;SDS011;36461;52.018;21.036;2023-10-08T14:09:26;1.30;;;0.80;;
35506;SDS011;36461;52.018;21.036;2023-10-08T14:12:05;1.90;;;1.20;;
35506;SDS011;36461;52.018;21.036;2023-10-08T14:14:35;1.80;;;0.80;;
35506;SDS011;36461;52.018;21.036;2023-10-08T14:17:09;1.80;;;1.00;;
35506;SDS011;36461;52.018;21.036;2023-10-08T14:19:42;4.10;;;1.20;;
35506;SDS011;36461;52.018;21.036;2023-10-08T14:22:14;4.00;;;1.00;;
35506;SDS011;36461;52.018;21.036;2023-10-08T14:24:43;1.50;;;0.90;;
35506;SDS011;36461;52.018;21.036;2023-10-08T14:27:14;3.70;;;1.20;;
35506;SDS011;36461;52.018;21.036;2023-10-08T14:29:46;5.00;;;1.30;;
35506;SDS011;36461;52.018;21.036;2023-10-08T14:32:18;2.60;;;1.10;;
35506;SDS011;36461;52.018;21.036;2023-10-08T14:34:48;1.80;;;0.90;;
35506;SDS011;36461;52.018;21.036;2023-10-08T14:37:22;3.10;;;0.90;;
35506;SDS011;36461;52.018;21.036;2023-10-08T14:40:09;2.20;;;0.80;;
35506;SDS011;36461;52.018;21.036;2023-10-08T14:45:27;0.90;;;0.80;;
35506;SDS011;36461;52.018;21.036;2023-10-08T14:47:59;3.90;;;1.10;;
35506;SDS011;36461;52.018;21.036;2023-10-08T14:50:28;1.10;;;1.00;;
35506;SDS011;36461;52.018;21.036;2023-10-08T14:52:59;3.30;;;1.10;;
35506;SDS011;36461;52.018;21.036;2023-10-08T14:55:35;1.30;;;0.90;;
35506;SDS011;36461;52.018;21.036;2023-10-08T14:58:06;3.00;;;1.00;;
35506;SDS011;36461;52.018;21.036;2023-10-08T15:00:38;2.40;;;1.00;;
35506;SDS011;36461;52.018;21.036;2023-10-08T15:03:09;2.10;;;1.00;;
35506;SDS011;36461;52.018;21.036;2023-10-08T15:05:40;2.30;;;1.20;;
35506;SDS011;36461;52.018;21.036;2023-10-08T15:08:08;4.20;;;0.80;;
35506;SDS011;36461;52.018;21.036;2023-10-08T15:10:42;2.90;;;1.30;;
35506;SDS011;36461;52.018;21.036;2023-10-08T15:13:11;1.60;;;0.70;;
35506;SDS011;36461;52.018;21.036;2023-10-08T15:15:39;2.10;;;0.90;;
35506;SDS011;36461;52.018;21.036;2023-10-08T15:18:08;2.00;;;1.20;;
35506;SDS011;36461;52.018;21.036;2023-10-08T15:20:40;1.80;;;1.10;;